KLFT

Lafayette Regional / Paul Fournet Field Airport

Lafayette, Louisiana, USA
KLFT 221133Z 2212/2312 VRB04KT P6SM VCSH FEW035 SCT100 TEMPO 2212/2213 VRB12G16KT 5SM TSRA FEW025 BKN030CB OVC070 FM221500 14005KT P6SM -SHRA BKN035 OVC070 TEMPO 2218/2222 VRB14G19KT 4SM -TSRA SCT030 BKN035CB OVC060
Issued Valid From Valid To
Sep-22 @ 11:33 UTC
(3 hours ago)
Sep-22 @ 12:00 UTC
(3 hours ago)
Sep-23 @ 12:00 UTC
(in 21 hours)
to
to
to
to
KLFT 221133Z 2212/2312 VRB04KT P6SM VCSH FEW035 SCT100 TEMPO 2212/2213 VRB12G16KT 5SM TSRA FEW025 BKN030CB OVC070 FM221500 14005KT P6SM -SHRA BKN035 OVC070 TEMPO 2218/2222 VRB14G19KT 4SM -TSRA SCT030 BKN035CB OVC060
Issued Sep-22 @ 11:33 UTC
(3 hours ago)
Valid From Sep-22 @ 12:00 UTC
(3 hours ago)
Valid To Sep-23 @ 12:00 UTC
(in 21 hours)
-
-
-
-